KEWR

Newark Liberty International Airport

Newark, New Jersey, USA
KEWR 201742Z 2018/2124 31017G25KT P6SM FEW050 FM201900 32017G25KT P6SM SCT050 FM210300 32013KT P6SM SKC FM210800 32009KT P6SM SKC FM211500 32011KT P6SM FEW040 FM211700 29012KT P6SM FEW040 FEW250
Issued Valid From Valid To
Apr-20 @ 17:42 UTC
(54 minutes ago)
Apr-20 @ 18:00 UTC
(36 minutes ago)
Apr-22 @ 00:00 UTC
(-1 days ago)
Apr-20 @ 18:00 to Apr-20 @ 19:00
KEWR 201742Z 2018/2124 31017G25KT P6SM FEW050
Wind Visibility Clouds
310° at 17 knots
 Gusting to 25 knots
Greater than 6 miles
  • Few at 5,000' AGL
From Apr-20 @ 19:00 to Apr-21 @ 03:00
FM201900 32017G25KT P6SM SCT050
Wind Visibility Clouds
320° at 17 knots
 Gusting to 25 knots
Greater than 6 miles
  • Scattered at 5,000' AGL
From Apr-21 @ 03:00 to Apr-21 @ 08:00
FM210300 32013KT P6SM SKC
Wind Visibility Clouds
320° at 13 knots Greater than 6 miles
  • Clear skies
From Apr-21 @ 08:00 to Apr-21 @ 15:00
FM210800 32009KT P6SM SKC
Wind Visibility Clouds
320° at 9 knots Greater than 6 miles
  • Clear skies
From Apr-21 @ 15:00 to Apr-21 @ 17:00
FM211500 32011KT P6SM FEW040
Wind Visibility Clouds
320° at 11 knots Greater than 6 miles
  • Few at 4,000' AGL
From Apr-21 @ 17:00 to Apr-22 @ 00:00
FM211700 29012KT P6SM FEW040 FEW250
Wind Visibility Clouds
290° at 12 knots Greater than 6 miles
  • Few at 4,000' AGL
  • Few at 25,000' AGL
KEWR 201742Z 2018/2124 31017G25KT P6SM FEW050 FM201900 32017G25KT P6SM SCT050 FM210300 32013KT P6SM SKC FM210800 32009KT P6SM SKC FM211500 32011KT P6SM FEW040 FM211700 29012KT P6SM FEW040 FEW250
Issued Apr-20 @ 17:42 UTC
(54 minutes ago)
Valid From Apr-20 @ 18:00 UTC
(36 minutes ago)
Valid To Apr-22 @ 00:00 UTC
(-1 days ago)
Apr-20 @ 18:00 - Apr-20 @ 19:00
Wind Visibility
310° at 17 knots
 Gusting to 25 knots
Greater than 6 miles
Clouds
  • Few at 5,000' AGL
From Apr-20 @ 19:00 - Apr-21 @ 03:00
Wind Visibility
320° at 17 knots
 Gusting to 25 knots
Greater than 6 miles
Clouds
  • Scattered at 5,000' AGL
From Apr-21 @ 03:00 - Apr-21 @ 08:00
Wind Visibility
320° at 13 knots Greater than 6 miles
Clouds
  • Clear skies
From Apr-21 @ 08:00 - Apr-21 @ 15:00
Wind Visibility
320° at 9 knots Greater than 6 miles
Clouds
  • Clear skies
From Apr-21 @ 15:00 - Apr-21 @ 17:00
Wind Visibility
320° at 11 knots Greater than 6 miles
Clouds
  • Few at 4,000' AGL
From Apr-21 @ 17:00 - Apr-22 @ 00:00
Wind Visibility
290° at 12 knots Greater than 6 miles
Clouds
  • Few at 4,000' AGL
  • Few at 25,000' AGL